International Virtual Aviation Organisation

Eastern Europe and Northern Asia MCD

 

Карточка аэропорта UHWW

Внимание!
Информация на этой странице в стадии наполнения.
Если вы не увидели какой-то информации, или заметили неточность - пожалуйста сообщите нам!
Спасибо!
Команда RU-STAFF
Название аэропортаКневичи
Название аэропорта (англ.)Knevichi
Превышение59 ft. (18 m.)
Координаты43°23.886', 132°8.9400000000001'
Высота перехода1800m
Эшелон переходаFL080
Коды ответчика5050-5077
Зона ОрВДХабаровск РПИ (UHHH)
Данные METARUHWW 201000Z 32003MPS 9999 NSC 13/M18 Q1017 R25L/0///70 NOSIG RMK QFE761
Проноз погоды (TAF)UHWW 200800Z 2009/2109 34007MPS 9999 NSC TEMPO 2009/2012 33011MPS BKN020 BECMG 2012/2014 32003MPS BECMG 2021/2023 22003MPS BKN025
NOTAMshow/hide NOTAM
AWOS   TABLE

Информация о ВПП

ВПП Длина ВПП (м.) Покрытие Курс ВПП Частота ILS
07R3500Бетон71109.3
25L3500Бетон251110.1

Диспетчерские позиции

Позывной Наименование органа УВД Частота
UHWW_R_APPВладивосток-Круг119.5
UHWW_APPВладивосток-Подход124.7
UHWW_GNDВладивосток-Руление121.7
UHWW_TWRВладивосток-Старт126.0
UHWW-FM1Машина сопровождения121.700



Спутниковое изображение